Time;durP1;ratioP1;P1;durP2;ratioP2;P2;SDS_P1;SDS_P2;PMS_P1;PMS_P2;Temp;Humidity;BMP_temperature;BMP_pressure;BME280_temperature;BME280_humidity;BME280_pressure;Samples;Min_cycle;Max_cycle;Signal;HPM_P1;HPM_P2
2024/04/13 00:01:07;;;;;;;5.27;3.37;;;;;;;15.21;100.00;101633.91;5478154;26;20318;-76
2024/04/13 00:03:32;;;;;;;4.53;3.03;;;;;;;15.19;100.00;101636.88;5514802;26;20354;-76
2024/04/13 00:05:57;;;;;;;5.60;3.80;;;;;;;15.13;100.00;101626.09;5516315;26;20338;-75
2024/04/13 00:08:22;;;;;;;8.83;3.47;;;;;;;15.07;100.00;101619.75;5484236;26;20400;-76
2024/04/13 00:10:48;;;;;;;4.40;2.90;;;;;;;14.99;100.00;101611.94;5510252;26;20322;-75
2024/04/13 00:13:14;;;;;;;4.20;2.87;;;;;;;14.93;100.00;101618.38;5470811;26;20310;-76
2024/04/13 00:15:40;;;;;;;3.97;2.85;;;;;;;14.89;100.00;101612.59;5489257;26;20331;-75
2024/04/13 00:18:07;;;;;;;5.10;2.97;;;;;;;14.91;100.00;101601.44;5489249;26;20306;-76
2024/04/13 00:20:32;;;;;;;5.53;2.50;;;;;;;14.87;100.00;101603.00;5487188;26;20673;-76
2024/04/13 00:22:59;;;;;;;5.43;2.83;;;;;;;14.89;100.00;101607.13;5457166;26;20314;-76
2024/04/13 00:25:26;;;;;;;3.17;2.30;;;;;;;14.83;100.00;101604.56;5489067;26;20353;-76
2024/04/13 00:27:51;;;;;;;3.80;2.92;;;;;;;14.78;100.00;101609.94;5456784;26;20657;-76
2024/04/13 00:30:17;;;;;;;2.67;2.42;;;;;;;14.75;100.00;101611.22;5508358;26;20445;-75
2024/04/13 00:32:42;;;;;;;6.05;3.00;;;;;;;14.71;100.00;101607.34;5509290;26;20319;-76
2024/04/13 00:35:07;;;;;;;7.60;2.70;;;;;;;14.69;100.00;101611.38;5515479;26;20734;-76
2024/04/13 00:37:33;;;;;;;5.27;3.13;;;;;;;14.63;100.00;101610.47;5483299;26;20352;-75
2024/04/13 00:39:58;;;;;;;6.53;3.05;;;;;;;14.63;100.00;101607.72;5433387;26;20349;-76
2024/04/13 00:42:24;;;;;;;5.43;4.10;;;;;;;14.64;100.00;101605.84;5488929;26;20327;-75
2024/04/13 00:45:01;;;;;;;5.57;3.03;;;;;;;14.68;100.00;101610.56;5488859;26;20322;-75
2024/04/13 00:47:27;;;;;;;5.00;3.05;;;;;;;14.71;100.00;101612.81;5478804;26;20370;-76
2024/04/13 00:49:55;;;;;;;4.22;2.95;;;;;;;14.75;100.00;101613.16;5488817;26;20430;-75
2024/04/13 00:52:23;;;;;;;6.93;3.27;;;;;;;14.75;100.00;101610.44;5457421;26;20306;-75
2024/04/13 00:54:49;;;;;;;4.17;3.27;;;;;;;14.73;100.00;101601.63;5468790;26;20946;-76
2024/04/13 00:57:15;;;;;;;4.13;3.13;;;;;;;14.78;100.00;101599.84;5488850;26;20404;-76
2024/04/13 00:59:40;;;;;;;9.18;3.63;;;;;;;14.77;100.00;101598.19;5486748;26;20674;-76
2024/04/13 01:02:10;;;;;;;5.22;3.10;;;;;;;14.77;100.00;101597.34;5493155;26;20793;-75
2024/04/13 01:04:37;;;;;;;6.63;3.25;;;;;;;14.74;100.00;101589.66;5514857;26;20646;-76
2024/04/13 01:07:03;;;;;;;5.70;2.75;;;;;;;14.73;100.00;101596.19;5515403;26;20320;-75
2024/04/13 01:09:28;;;;;;;3.03;2.67;;;;;;;14.74;100.00;101590.50;5503318;26;20345;-76
2024/04/13 01:11:54;;;;;;;3.50;2.35;;;;;;;14.72;100.00;101600.00;5508936;26;20646;-76
2024/04/13 01:14:20;;;;;;;4.03;3.20;;;;;;;14.68;100.00;101599.66;5513196;26;20714;-76
2024/04/13 01:16:45;;;;;;;4.13;2.63;;;;;;;14.65;100.00;101591.97;5515567;26;20802;-76
2024/04/13 01:19:11;;;;;;;5.63;2.93;;;;;;;14.63;100.00;101594.09;5507860;26;20318;-76
2024/04/13 01:21:37;;;;;;;4.82;2.60;;;;;;;14.62;100.00;101597.88;5486672;26;20849;-75
2024/04/13 01:24:05;;;;;;;3.50;2.50;;;;;;;14.59;100.00;101601.09;5488273;26;20323;-76
2024/04/13 01:26:38;;;;;;;3.50;2.65;;;;;;;14.55;100.00;101599.94;5463905;26;20307;-76
2024/04/13 01:29:07;;;;;;;4.90;3.05;;;;;;;14.52;100.00;101609.44;5511037;26;20323;-76
2024/04/13 01:31:34;;;;;;;2.35;2.15;;;;;;;14.48;100.00;101604.72;5499034;26;20334;-76
2024/04/13 01:34:02;;;;;;;2.80;2.25;;;;;;;14.45;100.00;101597.84;5513029;26;20425;-76
2024/04/13 01:36:35;;;;;;;5.15;2.45;;;;;;;14.42;100.00;101600.25;5506415;26;20304;-75
2024/04/13 01:39:00;;;;;;;2.83;2.00;;;;;;;14.34;100.00;101606.91;5480338;26;20318;-76
2024/04/13 01:41:26;;;;;;;8.27;2.70;;;;;;;14.29;100.00;101605.94;5488407;26;20319;-76
2024/04/13 01:43:51;;;;;;;3.47;2.03;;;;;;;14.21;100.00;101607.13;5487936;26;20302;-76
2024/04/13 01:46:16;;;;;;;5.23;2.53;;;;;;;14.19;100.00;101611.19;5455911;26;20365;-76
2024/04/13 01:48:43;;;;;;;3.37;2.53;;;;;;;14.15;100.00;101607.28;5486484;26;20322;-75
2024/04/13 01:51:08;;;;;;;5.93;2.80;;;;;;;14.10;100.00;101605.25;5486512;26;20420;-76
2024/04/13 01:53:33;;;;;;;5.50;2.40;;;;;;;14.07;100.00;101605.75;5489180;26;20691;-76
2024/04/13 01:55:59;;;;;;;2.63;2.00;;;;;;;14.01;100.00;101610.25;5489864;26;20801;-75
2024/04/13 01:58:24;;;;;;;4.47;2.40;;;;;;;14.01;100.00;101607.53;5487244;26;20310;-75
2024/04/13 02:00:49;;;;;;;3.90;1.90;;;;;;;14.02;100.00;101602.91;5463430;26;20417;-76
2024/04/13 02:03:14;;;;;;;4.63;2.43;;;;;;;13.99;100.00;101600.69;5487180;26;20370;-76
2024/04/13 02:05:39;;;;;;;3.78;2.20;;;;;;;13.98;100.00;101602.56;5425614;26;20356;-76
2024/04/13 02:08:06;;;;;;;2.70;2.50;;;;;;;13.92;100.00;101603.53;5487631;26;20380;-75
2024/04/13 02:10:32;;;;;;;2.50;2.30;;;;;;;13.90;100.00;101597.47;5483270;26;20310;-76
2024/04/13 02:12:57;;;;;;;2.37;2.00;;;;;;;13.85;100.00;101593.81;5454294;26;20350;-76
2024/04/13 02:15:22;;;;;;;4.68;2.40;;;;;;;13.86;100.00;101584.59;5455083;26;20311;-75
2024/04/13 02:17:48;;;;;;;6.17;2.40;;;;;;;13.89;100.00;101584.09;5487443;26;20656;-76
2024/04/13 02:20:16;;;;;;;3.57;2.50;;;;;;;13.88;100.00;101590.59;5485848;26;20318;-75
2024/04/13 02:22:41;;;;;;;2.93;2.50;;;;;;;13.83;100.00;101580.41;5498700;26;20341;-76
2024/04/13 02:25:08;;;;;;;2.40;2.20;;;;;;;13.83;100.00;101585.88;5471533;26;20314;-76
2024/04/13 02:27:34;;;;;;;3.15;2.35;;;;;;;13.80;100.00;101588.22;5481524;26;20315;-76
2024/04/13 02:29:59;;;;;;;3.03;2.72;;;;;;;13.76;100.00;101578.91;5478705;26;20376;-76
2024/04/13 02:32:25;;;;;;;2.50;2.30;;;;;;;13.73;100.00;101585.63;5475191;26;20421;-76
2024/04/13 02:34:50;;;;;;;2.40;2.20;;;;;;;13.73;100.00;101591.09;5510471;26;20876;-76
2024/04/13 02:37:15;;;;;;;4.03;2.17;;;;;;;13.74;100.00;101589.19;5481930;26;20320;-76
2024/04/13 02:39:41;;;;;;;3.13;2.27;;;;;;;13.74;100.00;101589.19;5503440;26;20354;-76
2024/04/13 02:42:06;;;;;;;6.00;2.20;;;;;;;13.73;100.00;101593.00;5485254;26;20318;-75
2024/04/13 02:44:32;;;;;;;3.93;2.60;;;;;;;13.72;100.00;101586.72;5482542;26;20793;-76
2024/04/13 02:46:57;;;;;;;4.80;2.20;;;;;;;13.74;100.00;101590.03;5481804;26;20319;-75
2024/04/13 02:49:22;;;;;;;4.03;2.40;;;;;;;13.73;100.00;101598.47;5509030;26;20340;-75
2024/04/13 02:51:48;;;;;;;2.50;2.30;;;;;;;13.73;100.00;101588.34;5455113;26;20307;-76
2024/04/13 02:54:13;;;;;;;3.80;2.50;;;;;;;13.70;100.00;101579.88;5486943;26;20322;-76
2024/04/13 02:56:38;;;;;;;3.43;2.37;;;;;;;13.74;100.00;101581.03;5454689;26;20311;-75
2024/04/13 02:59:03;;;;;;;4.45;2.60;;;;;;;13.75;100.00;101583.53;5487975;26;20347;-75
2024/04/13 03:01:30;;;;;;;3.03;2.07;;;;;;;13.78;100.00;101584.94;5453658;26;20321;-75
2024/04/13 03:03:55;;;;;;;4.43;2.55;;;;;;;13.76;100.00;101574.28;5489225;26;20416;-75
2024/04/13 03:06:20;;;;;;;5.43;2.70;;;;;;;13.73;100.00;101572.00;5489186;26;20382;-76
2024/04/13 03:08:48;;;;;;;4.90;1.77;;;;;;;13.73;100.00;101571.22;5490466;26;20889;-76
2024/04/13 03:11:14;;;;;;;4.28;2.33;;;;;;;13.71;100.00;101582.34;5488997;26;20436;-75
2024/04/13 03:13:39;;;;;;;3.13;2.43;;;;;;;13.71;100.00;101581.50;5490136;26;20334;-76
2024/04/13 03:16:08;;;;;;;4.13;2.57;;;;;;;13.67;100.00;101572.13;5489626;26;20350;-76
2024/04/13 03:18:34;;;;;;;2.85;2.50;;;;;;;13.67;100.00;101581.16;5484399;26;20307;-76
2024/04/13 03:21:00;;;;;;;4.65;2.47;;;;;;;13.55;100.00;101579.50;5477364;26;20334;-76
2024/04/13 03:23:29;;;;;;;2.90;2.40;;;;;;;13.60;100.00;101577.72;5493017;26;20707;-76
2024/04/13 03:25:54;;;;;;;3.72;2.35;;;;;;;13.65;100.00;101583.28;5495184;26;20408;-76
2024/04/13 03:28:23;;;;;;;5.05;2.28;;;;;;;13.71;100.00;101581.50;5494643;26;20358;-76
2024/04/13 03:30:48;;;;;;;2.75;2.55;;;;;;;13.71;100.00;101576.06;5491605;26;20318;-75
2024/04/13 03:33:13;;;;;;;2.83;2.47;;;;;;;13.71;100.00;101574.16;5461115;26;20350;-76
2024/04/13 03:35:39;;;;;;;2.90;2.60;;;;;;;13.69;100.00;101579.03;5486694;26;20345;-76
2024/04/13 03:38:04;;;;;;;7.17;2.50;;;;;;;13.69;100.00;101579.03;5463413;26;20873;-76
2024/04/13 03:40:29;;;;;;;5.33;2.80;;;;;;;13.67;100.00;101567.53;5455900;26;20330;-75
2024/04/13 03:42:55;;;;;;;4.10;2.43;;;;;;;13.68;100.00;101560.19;5457711;26;20318;-76
2024/04/13 03:45:20;;;;;;;5.50;2.20;;;;;;;13.69;100.00;101572.75;5489375;26;20326;-76
2024/04/13 03:47:45;;;;;;;5.57;2.37;;;;;;;13.68;100.00;101571.09;5489865;26;20343;-76
2024/04/13 03:50:11;;;;;;;2.67;2.30;;;;;;;13.68;100.00;101579.25;5488141;26;20307;-76
2024/04/13 03:52:37;;;;;;;3.63;2.53;;;;;;;13.64;100.00;101562.56;5487909;26;20815;-76
2024/04/13 03:55:04;;;;;;;2.67;2.35;;;;;;;13.62;100.00;101566.59;5489410;26;20829;-75
2024/04/13 03:57:29;;;;;;;6.85;2.70;;;;;;;13.59;100.00;101567.91;5489390;26;20346;-76
2024/04/13 03:59:55;;;;;;;2.30;2.10;;;;;;;13.61;100.00;101568.47;5487855;26;20325;-76
2024/04/13 04:02:20;;;;;;;3.30;2.47;;;;;;;13.59;100.00;101565.19;5460574;26;20391;-76
2024/04/13 04:04:45;;;;;;;4.63;2.67;;;;;;;13.59;100.00;101559.72;5492469;26;20419;-76
2024/04/13 04:07:11;;;;;;;3.83;2.28;;;;;;;13.58;100.00;101565.41;5494271;26;20440;-76
2024/04/13 04:09:36;;;;;;;4.20;2.50;;;;;;;13.53;100.00;101571.59;5489307;26;20366;-76
2024/04/13 04:12:02;;;;;;;3.83;2.77;;;;;;;13.46;100.00;101570.88;5487541;26;20796;-76
2024/04/13 04:14:27;;;;;;;2.78;2.30;;;;;;;13.41;100.00;101571.56;5456879;26;20318;-76
2024/04/13 04:16:53;;;;;;;3.20;2.20;;;;;;;13.31;100.00;101575.94;5457023;26;20350;-76
2024/04/13 04:19:19;;;;;;;3.00;1.73;;;;;;;13.28;100.00;101576.41;5485544;26;20347;-76
2024/04/13 04:21:44;;;;;;;4.45;2.10;;;;;;;13.23;100.00;101581.75;5482657;26;20314;-76
2024/04/13 04:24:09;;;;;;;2.23;1.87;;;;;;;13.18;100.00;101573.44;5505348;26;20314;-76
2024/04/13 04:26:35;;;;;;;3.23;2.10;;;;;;;13.14;100.00;101572.28;5490887;26;20317;-76
2024/04/13 04:29:00;;;;;;;2.93;2.00;;;;;;;13.11;100.00;101570.00;5489149;26;20917;-76
2024/04/13 04:31:25;;;;;;;2.23;2.00;;;;;;;13.07;100.00;101566.06;5488321;26;20299;-76
2024/04/13 04:33:53;;;;;;;2.83;2.13;;;;;;;13.03;100.00;101560.28;5456222;26;20318;-76
2024/04/13 04:36:18;;;;;;;2.40;2.20;;;;;;;13.02;100.00;101567.59;5488013;26;20355;-76
2024/04/13 04:38:43;;;;;;;3.40;2.37;;;;;;;13.02;100.00;101562.16;5490458;26;20323;-76
2024/04/13 04:41:09;;;;;;;3.07;2.20;;;;;;;13.01;100.00;101559.66;5487101;26;20334;-76
2024/04/13 04:43:34;;;;;;;2.70;1.90;;;;;;;12.98;100.00;101566.41;5466006;26;20362;-76
2024/04/13 04:45:59;;;;;;;5.80;2.13;;;;;;;12.99;100.00;101568.06;5478921;26;20654;-76
2024/04/13 04:48:24;;;;;;;5.93;2.30;;;;;;;13.00;100.00;101566.19;5446223;26;20309;-77
2024/04/13 04:50:57;;;;;;;5.47;2.73;;;;;;;13.01;100.00;101565.94;5494254;26;20312;-77
2024/04/13 04:53:26;;;;;;;3.30;2.53;;;;;;;13.01;100.00;101571.38;5491751;26;20361;-77
2024/04/13 04:55:51;;;;;;;3.70;2.10;;;;;;;13.01;100.00;101562.38;5491782;26;20365;-77
2024/04/13 04:58:17;;;;;;;5.10;2.87;;;;;;;12.99;100.00;101576.22;5460485;26;20326;-76
2024/04/13 05:00:42;;;;;;;2.90;2.17;;;;;;;12.92;100.00;101564.63;5455468;26;20378;-77
2024/04/13 05:03:07;;;;;;;2.97;2.30;;;;;;;12.90;100.00;101572.19;5491521;26;20339;-77
2024/04/13 05:05:32;;;;;;;2.88;2.22;;;;;;;12.88;100.00;101568.03;5486714;26;20366;-77
2024/04/13 05:07:58;;;;;;;3.73;2.20;;;;;;;12.88;100.00;101570.75;5487833;26;20302;-77
2024/04/13 05:10:23;;;;;;;2.10;1.90;;;;;;;12.82;100.00;101563.53;5452658;26;20420;-77
2024/04/13 05:12:49;;;;;;;4.83;2.00;;;;;;;12.80;100.00;101562.94;5488673;26;21082;-77
2024/04/13 05:15:14;;;;;;;3.20;2.20;;;;;;;12.81;100.00;101561.88;5477972;26;20314;-78
2024/04/13 05:17:39;;;;;;;2.90;2.00;;;;;;;12.83;100.00;101568.75;5486635;26;20315;-77
2024/04/13 05:20:05;;;;;;;4.70;2.00;;;;;;;12.87;100.00;101574.56;5493554;26;20322;-77
2024/04/13 05:22:30;;;;;;;4.57;2.63;;;;;;;12.83;100.00;101574.19;5472075;26;20378;-77
2024/04/13 05:24:55;;;;;;;3.87;2.27;;;;;;;12.88;100.00;101578.91;5487716;26;20318;-77
2024/04/13 05:27:22;;;;;;;2.90;2.30;;;;;;;12.88;100.00;101581.63;5485052;26;20306;-77
2024/04/13 05:29:52;;;;;;;2.55;2.17;;;;;;;12.87;100.00;101580.81;5442718;26;20325;-77
2024/04/13 05:32:18;;;;;;;2.33;2.10;;;;;;;12.93;100.00;101582.63;5488071;26;20579;-77
2024/04/13 05:34:44;;;;;;;5.50;2.38;;;;;;;12.96;100.00;101590.31;5479627;26;20309;-77
2024/04/13 05:37:09;;;;;;;4.18;2.35;;;;;;;13.01;100.00;101597.75;5478734;26;20868;-77
2024/04/13 05:39:35;;;;;;;3.10;2.40;;;;;;;13.05;100.00;101596.22;5490319;26;20318;-77
2024/04/13 05:42:00;;;;;;;4.03;2.70;;;;;;;13.03;100.00;101590.19;5487745;26;20678;-77
2024/04/13 05:44:25;;;;;;;3.37;3.10;;;;;;;13.04;100.00;101585.59;5488164;26;20318;-77
2024/04/13 05:46:51;;;;;;;3.70;2.70;;;;;;;13.06;100.00;101587.00;5485433;26;20384;-76
2024/04/13 05:49:16;;;;;;;3.97;2.90;;;;;;;13.16;100.00;101594.63;5487442;26;20701;-77
2024/04/13 05:51:42;;;;;;;7.00;2.97;;;;;;;13.20;100.00;101590.38;5490727;26;20402;-77
2024/04/13 05:54:07;;;;;;;5.18;2.83;;;;;;;13.27;100.00;101600.06;5490250;26;20354;-77
2024/04/13 05:56:32;;;;;;;4.87;3.10;;;;;;;13.29;100.00;101602.56;5487790;26;20318;-77
2024/04/13 05:58:58;;;;;;;4.30;2.63;;;;;;;13.34;100.00;101603.53;5487549;26;20318;-77
2024/04/13 06:01:25;;;;;;;7.10;3.10;;;;;;;13.38;100.00;101603.88;5493806;26;20436;-77
2024/04/13 06:03:51;;;;;;;4.47;2.90;;;;;;;13.43;100.00;101604.84;5485152;26;20637;-77
2024/04/13 06:06:16;;;;;;;4.50;3.13;;;;;;;13.47;100.00;101602.47;5483095;26;20351;-77
2024/04/13 06:08:41;;;;;;;3.87;2.93;;;;;;;13.53;100.00;101609.72;5480275;26;20418;-76
2024/04/13 06:11:06;;;;;;;4.33;2.60;;;;;;;13.58;100.00;101611.69;5487535;26;20452;-77
2024/04/13 06:13:32;;;;;;;8.67;2.90;;;;;;;13.63;100.00;101614.56;5484682;26;20318;-77
2024/04/13 06:16:01;;;;;;;4.67;2.83;;;;;;;13.74;100.00;101608.25;5468559;26;20314;-77
2024/04/13 06:18:27;;;;;;;5.10;3.00;;;;;;;13.82;100.00;101605.19;5487020;26;20298;-77
2024/04/13 06:20:52;;;;;;;7.27;3.03;;;;;;;13.85;100.00;101607.44;5452157;26;20856;-79
2024/04/13 06:23:17;;;;;;;5.47;3.07;;;;;;;13.89;100.00;101608.63;5492955;26;20315;-77
2024/04/13 06:25:49;;;;;;;6.20;3.57;;;;;;;13.94;100.00;101606.84;5479561;26;20712;-78
2024/04/13 06:28:15;;;;;;;7.50;3.95;;;;;;;14.03;100.00;101610.00;5458409;26;20829;-77
2024/04/13 06:30:43;;;;;;;5.07;3.17;;;;;;;14.06;100.00;101608.72;5452809;26;20321;-78
2024/04/13 06:33:09;;;;;;;4.20;3.75;;;;;;;14.13;100.00;101606.69;5491597;26;20304;-79
2024/04/13 06:35:35;;;;;;;3.65;3.42;;;;;;;14.18;100.00;101604.91;5484015;26;20643;-78
2024/04/13 06:38:00;;;;;;;3.93;3.17;;;;;;;14.15;100.00;101605.38;5489899;26;20357;-77
2024/04/13 06:40:25;;;;;;;4.37;3.07;;;;;;;14.24;100.00;101606.66;5485251;26;20334;-78
2024/04/13 06:42:50;;;;;;;5.67;3.67;;;;;;;14.28;100.00;101610.56;5480181;26;20674;-78
2024/04/13 06:45:16;;;;;;;3.93;3.50;;;;;;;14.33;100.00;101612.53;5485758;26;20311;-78
2024/04/13 06:47:42;;;;;;;5.38;4.40;;;;;;;14.42;100.00;101605.69;5476067;26;20854;-78
2024/04/13 06:50:07;;;;;;;4.73;3.73;;;;;;;14.49;100.00;101611.81;5482463;26;20315;-77
2024/04/13 06:52:32;;;;;;;6.17;3.80;;;;;;;14.45;100.00;101616.94;5486095;26;20715;-77
2024/04/13 06:54:58;;;;;;;5.50;3.97;;;;;;;14.46;100.00;101621.31;5479695;26;20314;-77
2024/04/13 06:57:25;;;;;;;4.22;3.28;;;;;;;14.48;100.00;101624.66;5489665;26;20801;-78
2024/04/13 06:59:51;;;;;;;3.92;3.25;;;;;;;14.52;100.00;101623.06;5471730;26;20325;-77
2024/04/13 07:02:16;;;;;;;5.00;3.35;;;;;;;14.61;100.00;101618.06;5478755;26;20318;-76
2024/04/13 07:04:41;;;;;;;5.03;3.93;;;;;;;14.67;100.00;101619.00;5454371;26;20861;-76
2024/04/13 07:07:06;;;;;;;5.63;4.27;;;;;;;14.69;100.00;101611.38;5485803;26;20326;-77
2024/04/13 07:09:32;;;;;;;4.25;3.85;;;;;;;14.71;100.00;101609.25;5482795;26;20419;-77
2024/04/13 07:11:57;;;;;;;6.17;4.33;;;;;;;14.86;100.00;101614.97;5484665;26;20346;-77
2024/04/13 07:14:22;;;;;;;6.03;4.30;;;;;;;14.89;100.00;101604.41;5501479;26;20352;-77
2024/04/13 07:16:49;;;;;;;7.30;4.77;;;;;;;14.95;100.00;101610.81;5452874;26;20432;-76
2024/04/13 07:19:14;;;;;;;5.25;4.47;;;;;;;14.97;100.00;101617.66;5474564;26;20314;-77
2024/04/13 07:21:39;;;;;;;7.53;4.13;;;;;;;15.02;100.00;101617.75;5482705;26;20370;-78
2024/04/13 07:24:05;;;;;;;7.63;4.43;;;;;;;15.04;100.00;101614.78;5485102;26;20315;-76
2024/04/13 07:26:30;;;;;;;5.23;3.73;;;;;;;15.13;100.00;101607.81;5485096;26;20800;-78
2024/04/13 07:28:55;;;;;;;7.83;4.23;;;;;;;15.13;100.00;101604.25;5484200;26;20306;-78
2024/04/13 07:31:21;;;;;;;8.27;4.53;;;;;;;15.17;100.00;101603.53;5479043;26;20358;-77
2024/04/13 07:33:46;;;;;;;6.57;4.17;;;;;;;15.17;100.00;101609.00;5478911;26;20333;-79
2024/04/13 07:36:11;;;;;;;6.03;4.57;;;;;;;15.21;100.00;101614.78;5485440;26;20318;-76
2024/04/13 07:38:36;;;;;;;10.33;4.97;;;;;;;15.30;100.00;101605.09;5484677;26;20362;-75
2024/04/13 07:41:02;;;;;;;4.90;4.27;;;;;;;15.37;100.00;101603.88;5482826;26;20387;-76
2024/04/13 07:43:29;;;;;;;8.93;4.73;;;;;;;15.43;100.00;101596.56;5486372;26;20707;-76
2024/04/13 07:45:54;;;;;;;8.30;4.47;;;;;;;15.38;100.00;101599.22;5459585;26;20323;-75
2024/04/13 07:48:19;;;;;;;7.00;4.47;;;;;;;15.43;100.00;101596.56;5489265;26;20348;-76
2024/04/13 07:50:45;;;;;;;9.47;4.87;;;;;;;15.54;100.00;101592.97;5487221;26;20366;-76
2024/04/13 07:53:10;;;;;;;8.18;5.15;;;;;;;15.63;100.00;101586.00;5491341;26;20310;-76
2024/04/13 07:55:36;;;;;;;5.90;4.80;;;;;;;15.73;100.00;101579.84;5491826;26;20351;-76
2024/04/13 07:58:01;;;;;;;7.13;4.53;;;;;;;15.81;100.00;101577.50;5488699;26;21030;-76
2024/04/13 08:00:26;;;;;;;10.93;4.67;;;;;;;15.88;100.00;101574.56;5488827;26;20310;-75
2024/04/13 08:02:51;;;;;;;9.90;4.13;;;;;;;15.98;100.00;101572.81;5487550;26;20310;-73
2024/04/13 08:05:17;;;;;;;5.43;4.77;;;;;;;16.08;100.00;101578.41;5488168;26;20476;-75
2024/04/13 08:07:42;;;;;;;6.00;4.70;;;;;;;16.13;100.00;101574.09;5486133;26;20307;-76
2024/04/13 08:10:07;;;;;;;7.60;5.40;;;;;;;16.20;100.00;101572.00;5484069;26;21043;-75
2024/04/13 08:12:32;;;;;;;7.73;4.47;;;;;;;16.35;100.00;101564.78;5487378;26;20403;-75
2024/04/13 08:14:58;;;;;;;6.17;4.70;;;;;;;16.45;100.00;101569.56;5482527;26;20330;-76
2024/04/13 08:17:26;;;;;;;8.93;5.07;;;;;;;16.56;100.00;101574.88;5488177;26;20448;-75
2024/04/13 08:19:52;;;;;;;6.30;4.07;;;;;;;16.67;100.00;101558.59;5488299;26;20358;-75
2024/04/13 08:22:17;;;;;;;5.85;4.10;;;;;;;16.73;100.00;101565.78;5487119;26;20718;-76
2024/04/13 08:24:44;;;;;;;3.90;3.47;;;;;;;16.84;100.00;101565.59;5487621;26;20677;-76
2024/04/13 08:27:10;;;;;;;7.38;4.15;;;;;;;16.94;100.00;101560.22;5486345;26;20681;-75
2024/04/13 08:29:35;;;;;;;4.47;3.17;;;;;;;16.99;100.00;101565.72;5488952;26;20315;-75
2024/04/13 08:32:00;;;;;;;5.73;4.20;;;;;;;17.06;100.00;101560.03;5456794;26;20326;-75
2024/04/13 08:34:26;;;;;;;7.00;4.53;;;;;;;17.11;100.00;101555.44;5455150;26;20318;-75
2024/04/13 08:36:52;;;;;;;6.90;4.45;;;;;;;17.19;100.00;101548.63;5495587;26;20470;-75
2024/04/13 08:39:18;;;;;;;5.97;4.10;;;;;;;17.25;100.00;101547.63;5492017;26;20500;-76
2024/04/13 08:41:53;;;;;;;6.13;3.08;;;;;;;17.33;100.00;101552.59;5492049;26;20359;-75
2024/04/13 08:44:18;;;;;;;4.70;3.28;;;;;;;17.33;100.00;101554.50;5487554;26;20669;-75
2024/04/13 08:46:44;;;;;;;3.87;3.50;;;;;;;17.38;100.00;101544.41;5454834;26;20415;-76
2024/04/13 08:49:11;;;;;;;7.38;3.88;;;;;;;17.49;100.00;101545.28;5488416;26;20416;-75
2024/04/13 08:51:38;;;;;;;6.10;3.33;;;;;;;17.63;100.00;101530.06;5488719;26;20718;-75
2024/04/13 08:54:05;;;;;;;4.80;2.58;;;;;;;17.81;100.00;101540.59;5487696;26;20318;-75
2024/04/13 08:56:30;;;;;;;6.97;2.97;;;;;;;17.97;100.00;101534.09;5492092;26;20318;-75
2024/04/13 08:58:57;;;;;;;6.33;3.13;;;;;;;18.17;100.00;101533.34;5491565;26;20797;-75
2024/04/13 09:01:26;;;;;;;4.07;2.60;;;;;;;18.30;100.00;101526.53;5491900;26;20375;-75
2024/04/13 09:03:53;;;;;;;3.42;2.50;;;;;;;18.45;100.00;101529.28;5490467;26;20319;-75
2024/04/13 09:06:19;;;;;;;4.38;2.65;;;;;;;18.50;100.00;101526.59;5495106;26;20373;-75
2024/04/13 09:08:46;;;;;;;5.57;2.73;;;;;;;18.71;100.00;101528.25;5486650;26;20673;-75
2024/04/13 09:11:12;;;;;;;3.70;2.53;;;;;;;18.90;100.00;101523.09;5488108;26;20918;-75
2024/04/13 09:13:38;;;;;;;6.73;2.77;;;;;;;19.17;100.00;101518.94;5486883;26;20311;-75
2024/04/13 09:16:06;;;;;;;4.38;2.80;;;;;;;19.47;100.00;101520.84;5490764;26;20315;-75
2024/04/13 09:18:31;;;;;;;6.57;2.47;;;;;;;19.77;100.00;101516.34;5465629;26;20427;-75
2024/04/13 09:21:00;;;;;;;4.47;2.40;;;;;;;20.09;100.00;101514.84;5491739;26;20326;-75
2024/04/13 09:23:28;;;;;;;3.75;2.92;;;;;;;20.50;100.00;101515.47;5454862;26;20380;-75
2024/04/13 09:26:07;;;;;;;6.45;3.10;;;;;;;20.69;100.00;101523.88;5486695;26;20322;-75
2024/04/13 09:28:44;;;;;;;2.70;2.10;;;;;;;20.69;100.00;101518.38;5468461;26;20413;-75
2024/04/13 09:31:11;;;;;;;3.95;2.40;;;;;;;20.71;100.00;101521.69;5491494;26;20318;-75
2024/04/13 09:33:37;;;;;;;4.43;2.85;;;;;;;20.68;100.00;101522.25;5489730;26;20848;-75
2024/04/13 09:36:03;;;;;;;5.07;2.53;;;;;;;20.67;100.00;101512.34;5488356;26;20310;-75
2024/04/13 09:38:28;;;;;;;5.97;2.73;;;;;;;20.82;100.00;101517.72;5487787;26;20322;-75
2024/04/13 09:40:58;;;;;;;4.40;2.40;;;;;;;21.03;100.00;101512.88;5488053;26;20326;-75
2024/04/13 09:43:23;;;;;;;4.07;2.20;;;;;;;21.29;100.00;101508.81;5484612;26;20853;-75
2024/04/13 09:46:01;;;;;;;5.87;2.87;;;;;;;21.56;100.00;101506.31;5483696;26;20310;-75
2024/04/13 09:48:28;;;;;;;6.45;2.63;;;;;;;21.64;100.00;101504.81;5487727;26;20310;-76
2024/04/13 09:50:53;;;;;;;6.75;2.45;;;;;;;21.65;100.00;101507.31;5487766;26;20374;-75
2024/04/13 09:53:18;;;;;;;10.73;3.00;;;;;;;21.90;100.00;101508.97;5487820;26;20351;-75
2024/04/13 09:55:44;;;;;;;3.70;2.43;;;;;;;22.05;100.00;101506.03;5492471;26;20698;-75
2024/04/13 09:58:12;;;;;;;3.35;2.63;;;;;;;22.22;100.00;101502.75;5491009;26;20346;-75
2024/04/13 10:00:43;;;;;;;5.38;2.72;;;;;;;22.44;100.00;101499.41;5491087;26;20832;-75
2024/04/13 10:03:10;;;;;;;5.03;2.60;;;;;;;22.65;100.00;101496.03;5489532;26;20815;-73
2024/04/13 10:05:37;;;;;;;2.93;2.10;;;;;;;22.89;100.00;101497.88;5454087;26;20314;-73
2024/04/13 10:08:06;;;;;;;14.07;2.92;;;;;;;23.13;100.00;101493.03;5457327;26;20310;-73
2024/04/13 10:10:34;;;;;;;8.23;2.80;;;;;;;23.36;100.00;101485.72;5489785;26;20748;-73
2024/04/13 10:13:02;;;;;;;2.30;1.95;;;;;;;23.48;100.00;101481.34;5454014;26;20456;-73
2024/04/13 10:15:27;;;;;;;5.65;2.20;;;;;;;23.83;100.00;101490.06;5490821;26;20361;-74
2024/04/13 10:17:54;;;;;;;3.37;2.27;;;;;;;23.84;100.00;101484.22;5489389;26;20315;-76
2024/04/13 10:20:20;;;;;;;3.67;2.20;;;;;;;23.94;100.00;101484.00;5489722;26;20334;-74
2024/04/13 10:22:53;;;;;;;4.73;2.43;;;;;;;24.15;100.00;101481.63;5488659;26;20400;-73
2024/04/13 10:25:26;;;;;;;2.50;2.10;;;;;;;24.47;100.00;101477.88;5490096;26;20311;-73
2024/04/13 10:28:03;;;;;;;5.57;2.15;;;;;;;25.07;97.30;101465.28;5489359;26;20464;-73
2024/04/13 10:30:28;;;;;;;7.13;2.50;;;;;;;25.55;94.77;101470.94;5486263;26;20367;-73
2024/04/13 10:32:54;;;;;;;4.93;2.77;;;;;;;26.25;90.13;101464.41;5492189;26;20471;-73
2024/04/13 10:35:25;;;;;;;3.93;2.27;;;;;;;27.03;81.89;101462.44;5487133;26;20315;-73
2024/04/13 10:37:51;;;;;;;1.98;1.63;;;;;;;27.24;77.43;101457.75;5486715;26;20422;-74
2024/04/13 10:40:23;;;;;;;3.80;2.00;;;;;;;27.52;75.81;101459.00;5486597;26;20382;-73
2024/04/13 10:42:48;;;;;;;3.35;1.98;;;;;;;27.88;73.92;101458.47;5461520;26;20316;-73
2024/04/13 10:45:16;;;;;;;2.73;2.00;;;;;;;28.42;70.91;101453.84;5483915;26;20322;-73
2024/04/13 10:47:42;;;;;;;2.10;1.88;;;;;;;29.13;69.26;101453.66;5489967;26;20346;-74
2024/04/13 10:50:17;;;;;;;3.50;1.77;;;;;;;29.66;63.75;101449.91;5489479;26;20323;-73
2024/04/13 10:52:43;;;;;;;2.95;1.98;;;;;;;30.38;60.87;101446.19;5451950;26;20358;-73
2024/04/13 10:55:17;;;;;;;3.72;2.00;;;;;;;30.73;60.34;101443.59;5488801;26;20342;-73
2024/04/13 10:57:45;;;;;;;2.53;1.98;;;;;;;30.84;56.25;101448.34;5490071;26;20466;-73
2024/04/13 11:00:11;;;;;;;2.30;1.80;;;;;;;31.06;55.27;101440.53;5489166;26;20454;-73
2024/04/13 11:02:39;;;;;;;2.78;2.08;;;;;;;31.34;53.90;101444.91;5489672;26;20789;-73
2024/04/13 11:05:07;;;;;;;2.63;1.70;;;;;;;31.59;52.61;101436.31;5485909;26;20712;-73
2024/04/13 11:07:34;;;;;;;2.70;1.90;;;;;;;31.75;49.56;101432.31;5486485;26;20657;-73
2024/04/13 11:10:02;;;;;;;3.33;1.80;;;;;;;32.19;49.99;101435.75;5488500;26;20363;-74
2024/04/13 11:12:27;;;;;;;3.45;1.90;;;;;;;32.59;48.57;101429.00;5458253;26;20527;-73